In Rescue
 
Open Full Screen Window  High Contrast Mode
Wind Gusting 00 knots
04
November 29, 2022 9:14 AM CST
Present Weather: Light Snow
Weather Information
Wind Direction
  310 °
Wind Speed
  04 kt (5 mph)
Wind Gust
  00 kt (0 mph)
Altimeter
29.74 in
Visibility
1 1/4 SM
Temperature
-02° C
28° F
Dewpoint
-05° C
23° F
Humidity
80%
1hr Rain Fall
00.00 in.
24hr Rain Fall
00.01 in.
Sky Condition
Overcast @ 600 ft
IFR

METAR KJMR 291514Z AUTO 31004KT 1 1/4SM -SN OVC006 M02/M05 A2974 RMK AO2

FAA Disclaimer: The data displayed is for advisory purposes only and is not to be used for flight planning or operations.